sensor_id;sensor_type;location;lat;lon;timestamp;pressure;altitude;pressure_sealevel;temperature;humidity
56719;BME280;42597;40.636;0.278;2023-11-21T00:01:17;97229.06;;;17.71;63.56
56719;BME280;42597;40.636;0.278;2023-11-21T00:03:43;97223.59;;;18.21;67.99
56719;BME280;42597;40.636;0.278;2023-11-21T00:06:09;97218.03;;;18.50;64.44
56719;BME280;42597;40.636;0.278;2023-11-21T00:08:35;97213.47;;;17.86;63.34
56719;BME280;42597;40.636;0.278;2023-11-21T00:11:01;97223.56;;;17.36;67.12
56719;BME280;42597;40.636;0.278;2023-11-21T00:13:27;97216.19;;;18.04;66.61
56719;BME280;42597;40.636;0.278;2023-11-21T00:15:52;97225.56;;;17.99;64.10
56719;BME280;42597;40.636;0.278;2023-11-21T00:18:18;97204.06;;;18.12;68.56
56719;BME280;42597;40.636;0.278;2023-11-21T00:20:44;97219.16;;;16.08;66.51
56719;BME280;42597;40.636;0.278;2023-11-21T00:23:10;97200.50;;;17.08;65.48
56719;BME280;42597;40.636;0.278;2023-11-21T00:25:35;97197.44;;;18.13;67.47
56719;BME280;42597;40.636;0.278;2023-11-21T00:28:01;97183.94;;;16.58;65.50
56719;BME280;42597;40.636;0.278;2023-11-21T00:30:27;97209.06;;;17.03;61.09
56719;BME280;42597;40.636;0.278;2023-11-21T00:32:54;97176.72;;;17.12;64.33
56719;BME280;42597;40.636;0.278;2023-11-21T00:35:20;97189.25;;;17.74;67.44
56719;BME280;42597;40.636;0.278;2023-11-21T00:37:45;97206.75;;;16.21;54.61
56719;BME280;42597;40.636;0.278;2023-11-21T00:40:11;97180.03;;;16.56;65.80
56719;BME280;42597;40.636;0.278;2023-11-21T00:42:37;97172.19;;;15.74;67.38
56719;BME280;42597;40.636;0.278;2023-11-21T00:45:03;97182.94;;;16.95;61.18
56719;BME280;42597;40.636;0.278;2023-11-21T00:47:29;97173.66;;;17.53;68.96
56719;BME280;42597;40.636;0.278;2023-11-21T00:49:54;97183.78;;;18.03;67.03
56719;BME280;42597;40.636;0.278;2023-11-21T00:52:20;97178.97;;;16.74;53.17
56719;BME280;42597;40.636;0.278;2023-11-21T00:54:46;97174.78;;;17.52;67.84
56719;BME280;42597;40.636;0.278;2023-11-21T00:57:13;97152.78;;;15.83;64.25
56719;BME280;42597;40.636;0.278;2023-11-21T00:59:39;97179.88;;;17.25;62.58
56719;BME280;42597;40.636;0.278;2023-11-21T01:02:05;97133.47;;;16.06;57.46
56719;BME280;42597;40.636;0.278;2023-11-21T01:04:30;97167.41;;;17.42;65.13
56719;BME280;42597;40.636;0.278;2023-11-21T01:06:57;97166.56;;;17.16;60.94
56719;BME280;42597;40.636;0.278;2023-11-21T01:09:23;97148.59;;;18.08;63.33
56719;BME280;42597;40.636;0.278;2023-11-21T01:11:49;97157.25;;;17.17;55.04
56719;BME280;42597;40.636;0.278;2023-11-21T01:14:15;97157.63;;;17.55;53.33
56719;BME280;42597;40.636;0.278;2023-11-21T01:16:40;97151.72;;;16.96;56.75
56719;BME280;42597;40.636;0.278;2023-11-21T01:19:06;97169.28;;;16.95;65.79
56719;BME280;42597;40.636;0.278;2023-11-21T01:21:32;97192.81;;;16.34;67.27
56719;BME280;42597;40.636;0.278;2023-11-21T01:23:57;97148.66;;;17.22;64.83
56719;BME280;42597;40.636;0.278;2023-11-21T01:26:23;97161.13;;;17.23;65.98
56719;BME280;42597;40.636;0.278;2023-11-21T01:28:48;97180.53;;;15.99;54.61
56719;BME280;42597;40.636;0.278;2023-11-21T01:31:15;97162.13;;;18.58;63.43
56719;BME280;42597;40.636;0.278;2023-11-21T01:33:41;97206.41;;;17.71;56.43
56719;BME280;42597;40.636;0.278;2023-11-21T01:36:07;97192.31;;;17.12;64.27
56719;BME280;42597;40.636;0.278;2023-11-21T01:38:33;97183.00;;;17.88;60.72
56719;BME280;42597;40.636;0.278;2023-11-21T01:40:58;97205.16;;;16.90;60.88
56719;BME280;42597;40.636;0.278;2023-11-21T01:43:26;97216.56;;;17.70;65.43
56719;BME280;42597;40.636;0.278;2023-11-21T01:45:54;97202.69;;;15.94;58.19
56719;BME280;42597;40.636;0.278;2023-11-21T01:48:22;97185.75;;;17.73;63.32
56719;BME280;42597;40.636;0.278;2023-11-21T01:50:48;97212.41;;;16.64;55.58
56719;BME280;42597;40.636;0.278;2023-11-21T01:53:14;97197.03;;;17.40;64.19
56719;BME280;42597;40.636;0.278;2023-11-21T01:55:45;97199.34;;;18.23;64.32
56719;BME280;42597;40.636;0.278;2023-11-21T01:58:11;97182.84;;;18.52;60.22
56719;BME280;42597;40.636;0.278;2023-11-21T02:00:40;97186.50;;;17.70;61.52
56719;BME280;42597;40.636;0.278;2023-11-21T02:03:06;97202.53;;;17.86;64.69
56719;BME280;42597;40.636;0.278;2023-11-21T02:05:32;97190.41;;;18.05;55.88
56719;BME280;42597;40.636;0.278;2023-11-21T02:07:58;97161.34;;;18.54;62.04
56719;BME280;42597;40.636;0.278;2023-11-21T02:10:24;97166.50;;;18.31;60.01
56719;BME280;42597;40.636;0.278;2023-11-21T02:12:50;97163.25;;;18.71;60.83
56719;BME280;42597;40.636;0.278;2023-11-21T02:15:16;97158.81;;;17.93;56.44
56719;BME280;42597;40.636;0.278;2023-11-21T02:17:46;97140.16;;;18.72;60.97
56719;BME280;42597;40.636;0.278;2023-11-21T02:20:20;97147.59;;;16.25;56.23
56719;BME280;42597;40.636;0.278;2023-11-21T02:22:54;97159.94;;;16.89;68.14
56719;BME280;42597;40.636;0.278;2023-11-21T02:25:27;97136.84;;;18.18;62.06
56719;BME280;42597;40.636;0.278;2023-11-21T02:27:56;97135.41;;;17.42;52.15
56719;BME280;42597;40.636;0.278;2023-11-21T02:30:23;97147.41;;;18.16;60.79
56719;BME280;42597;40.636;0.278;2023-11-21T02:32:50;97150.91;;;15.42;54.04
56719;BME280;42597;40.636;0.278;2023-11-21T02:35:18;97140.03;;;17.95;63.00
56719;BME280;42597;40.636;0.278;2023-11-21T02:37:47;97131.47;;;17.93;50.03
56719;BME280;42597;40.636;0.278;2023-11-21T02:40:12;97145.09;;;18.08;63.90
56719;BME280;42597;40.636;0.278;2023-11-21T02:42:41;97100.63;;;17.64;53.21
56719;BME280;42597;40.636;0.278;2023-11-21T02:45:07;97140.06;;;17.27;57.46
56719;BME280;42597;40.636;0.278;2023-11-21T02:47:33;97150.91;;;18.20;53.40
56719;BME280;42597;40.636;0.278;2023-11-21T02:49:59;97134.44;;;18.38;60.47
56719;BME280;42597;40.636;0.278;2023-11-21T02:52:25;97130.06;;;18.59;53.92
56719;BME280;42597;40.636;0.278;2023-11-21T02:54:50;97159.25;;;16.22;56.62
56719;BME280;42597;40.636;0.278;2023-11-21T02:57:16;97141.59;;;18.00;59.82
56719;BME280;42597;40.636;0.278;2023-11-21T02:59:42;97134.84;;;15.74;47.36
56719;BME280;42597;40.636;0.278;2023-11-21T03:02:07;97149.00;;;16.89;62.35
56719;BME280;42597;40.636;0.278;2023-11-21T03:04:34;97155.06;;;14.85;61.74
56719;BME280;42597;40.636;0.278;2023-11-21T03:07:00;97124.97;;;16.18;46.98
56719;BME280;42597;40.636;0.278;2023-11-21T03:09:26;97143.09;;;16.72;59.68
56719;BME280;42597;40.636;0.278;2023-11-21T03:11:55;97137.31;;;17.70;63.79
56719;BME280;42597;40.636;0.278;2023-11-21T03:14:21;97145.16;;;17.47;64.06
56719;BME280;42597;40.636;0.278;2023-11-21T03:16:47;97164.13;;;16.68;46.94
56719;BME280;42597;40.636;0.278;2023-11-21T03:19:14;97149.28;;;15.82;47.54
56719;BME280;42597;40.636;0.278;2023-11-21T03:21:40;97148.56;;;16.76;52.50
56719;BME280;42597;40.636;0.278;2023-11-21T03:24:06;97123.94;;;18.22;52.68
56719;BME280;42597;40.636;0.278;2023-11-21T03:26:33;97121.34;;;17.65;63.49
56719;BME280;42597;40.636;0.278;2023-11-21T03:28:58;97121.72;;;18.84;53.84
56719;BME280;42597;40.636;0.278;2023-11-21T03:31:24;97125.81;;;18.47;59.09
56719;BME280;42597;40.636;0.278;2023-11-21T03:33:49;97127.53;;;17.98;49.66
56719;BME280;42597;40.636;0.278;2023-11-21T03:36:15;97162.72;;;17.53;62.08
56719;BME280;42597;40.636;0.278;2023-11-21T03:38:41;97137.28;;;18.03;58.92
56719;BME280;42597;40.636;0.278;2023-11-21T03:41:07;97126.25;;;16.49;51.91
56719;BME280;42597;40.636;0.278;2023-11-21T03:43:36;97127.56;;;17.76;63.23
56719;BME280;42597;40.636;0.278;2023-11-21T03:46:02;97127.53;;;18.05;60.82
56719;BME280;42597;40.636;0.278;2023-11-21T03:48:28;97119.72;;;17.96;47.29
56719;BME280;42597;40.636;0.278;2023-11-21T03:50:53;97131.38;;;18.25;55.16
56719;BME280;42597;40.636;0.278;2023-11-21T03:53:19;97131.38;;;18.18;58.42
56719;BME280;42597;40.636;0.278;2023-11-21T03:55:45;97121.00;;;18.72;57.41
56719;BME280;42597;40.636;0.278;2023-11-21T03:58:11;97133.13;;;18.68;53.13
56719;BME280;42597;40.636;0.278;2023-11-21T04:00:36;97143.06;;;18.30;54.41
56719;BME280;42597;40.636;0.278;2023-11-21T04:03:02;97158.41;;;17.09;51.76
56719;BME280;42597;40.636;0.278;2023-11-21T04:05:28;97170.22;;;16.33;45.04
56719;BME280;42597;40.636;0.278;2023-11-21T04:07:54;97153.13;;;16.50;48.70
56719;BME280;42597;40.636;0.278;2023-11-21T04:10:19;97165.59;;;16.51;65.67
56719;BME280;42597;40.636;0.278;2023-11-21T04:12:45;97141.44;;;18.50;57.61
56719;BME280;42597;40.636;0.278;2023-11-21T04:15:11;97148.63;;;17.15;61.82
56719;BME280;42597;40.636;0.278;2023-11-21T04:17:39;97152.53;;;17.28;55.81
56719;BME280;42597;40.636;0.278;2023-11-21T04:20:05;97142.41;;;17.61;60.02
56719;BME280;42597;40.636;0.278;2023-11-21T04:22:43;97129.00;;;16.49;48.73
56719;BME280;42597;40.636;0.278;2023-11-21T04:25:14;97160.22;;;15.86;56.61
56719;BME280;42597;40.636;0.278;2023-11-21T04:27:40;97141.03;;;15.71;53.85
56719;BME280;42597;40.636;0.278;2023-11-21T04:30:09;97155.25;;;17.07;62.61
56719;BME280;42597;40.636;0.278;2023-11-21T04:32:35;97167.03;;;16.20;49.25
56719;BME280;42597;40.636;0.278;2023-11-21T04:35:01;97178.69;;;16.17;57.18
56719;BME280;42597;40.636;0.278;2023-11-21T04:37:26;97163.44;;;17.03;57.85
56719;BME280;42597;40.636;0.278;2023-11-21T04:39:52;97131.38;;;18.29;58.47
56719;BME280;42597;40.636;0.278;2023-11-21T04:42:18;97161.91;;;17.27;55.82
56719;BME280;42597;40.636;0.278;2023-11-21T04:44:43;97148.41;;;18.65;56.43
56719;BME280;42597;40.636;0.278;2023-11-21T04:47:10;97132.13;;;18.33;56.51
56719;BME280;42597;40.636;0.278;2023-11-21T04:49:35;97155.69;;;17.81;48.87
56719;BME280;42597;40.636;0.278;2023-11-21T04:52:01;97150.59;;;17.68;50.92
56719;BME280;42597;40.636;0.278;2023-11-21T04:54:30;97149.91;;;16.27;48.17
56719;BME280;42597;40.636;0.278;2023-11-21T04:56:56;97178.91;;;16.67;60.76
56719;BME280;42597;40.636;0.278;2023-11-21T04:59:22;97177.75;;;16.72;51.61
56719;BME280;42597;40.636;0.278;2023-11-21T05:01:50;97153.84;;;14.78;52.61
56719;BME280;42597;40.636;0.278;2023-11-21T05:04:16;97140.06;;;17.63;53.57
56719;BME280;42597;40.636;0.278;2023-11-21T05:06:41;97169.50;;;16.47;55.74
56719;BME280;42597;40.636;0.278;2023-11-21T05:09:07;97142.34;;;18.04;56.51
56719;BME280;42597;40.636;0.278;2023-11-21T05:11:37;97148.66;;;17.33;49.15
56719;BME280;42597;40.636;0.278;2023-11-21T05:14:03;97182.59;;;17.28;53.63
56719;BME280;42597;40.636;0.278;2023-11-21T05:16:30;97202.34;;;16.75;56.22
56719;BME280;42597;40.636;0.278;2023-11-21T05:18:56;97193.38;;;15.98;53.57
56719;BME280;42597;40.636;0.278;2023-11-21T05:21:28;97191.53;;;17.15;51.51
56719;BME280;42597;40.636;0.278;2023-11-21T05:23:58;97207.34;;;15.90;56.48
56719;BME280;42597;40.636;0.278;2023-11-21T05:26:23;97164.91;;;16.72;61.86
56719;BME280;42597;40.636;0.278;2023-11-21T05:28:49;97209.34;;;15.48;55.26
56719;BME280;42597;40.636;0.278;2023-11-21T05:31:15;97206.00;;;16.28;57.89
56719;BME280;42597;40.636;0.278;2023-11-21T05:33:41;97201.00;;;16.37;60.29
56719;BME280;42597;40.636;0.278;2023-11-21T05:36:07;97212.91;;;15.56;65.92
56719;BME280;42597;40.636;0.278;2023-11-21T05:38:33;97205.78;;;15.89;54.33
56719;BME280;42597;40.636;0.278;2023-11-21T05:40:59;97219.47;;;15.55;51.61
56719;BME280;42597;40.636;0.278;2023-11-21T05:43:25;97218.34;;;15.15;59.21
56719;BME280;42597;40.636;0.278;2023-11-21T05:45:50;97232.31;;;15.54;54.95
56719;BME280;42597;40.636;0.278;2023-11-21T05:48:17;97248.69;;;16.02;55.12
56719;BME280;42597;40.636;0.278;2023-11-21T05:50:42;97231.66;;;16.16;60.44
56719;BME280;42597;40.636;0.278;2023-11-21T05:53:08;97218.63;;;16.54;51.07
56719;BME280;42597;40.636;0.278;2023-11-21T05:55:36;97280.09;;;15.45;53.14
56719;BME280;42597;40.636;0.278;2023-11-21T05:58:02;97261.44;;;15.47;50.73
56719;BME280;42597;40.636;0.278;2023-11-21T06:00:28;97274.22;;;15.80;50.51
56719;BME280;42597;40.636;0.278;2023-11-21T06:02:53;97281.59;;;15.79;52.70
56719;BME280;42597;40.636;0.278;2023-11-21T06:05:20;97248.56;;;17.52;50.66
56719;BME280;42597;40.636;0.278;2023-11-21T06:07:49;97241.53;;;17.47;47.49
56719;BME280;42597;40.636;0.278;2023-11-21T06:10:14;97236.56;;;16.62;58.16
56719;BME280;42597;40.636;0.278;2023-11-21T06:12:43;97241.97;;;17.82;57.81
56719;BME280;42597;40.636;0.278;2023-11-21T06:15:10;97247.50;;;16.00;50.01
56719;BME280;42597;40.636;0.278;2023-11-21T06:17:39;97225.66;;;16.62;53.23
56719;BME280;42597;40.636;0.278;2023-11-21T06:20:06;97239.59;;;15.40;48.76
56719;BME280;42597;40.636;0.278;2023-11-21T06:22:40;97220.19;;;16.59;53.71
56719;BME280;42597;40.636;0.278;2023-11-21T06:25:07;97245.44;;;14.71;49.79
56719;BME280;42597;40.636;0.278;2023-11-21T06:27:43;97238.97;;;14.49;52.38
56719;BME280;42597;40.636;0.278;2023-11-21T06:30:10;97219.31;;;16.37;58.58
56719;BME280;42597;40.636;0.278;2023-11-21T06:32:37;97232.63;;;15.87;51.66
56719;BME280;42597;40.636;0.278;2023-11-21T06:35:04;97239.13;;;16.26;59.35
56719;BME280;42597;40.636;0.278;2023-11-21T06:37:30;97230.56;;;14.35;50.30
56719;BME280;42597;40.636;0.278;2023-11-21T06:39:57;97221.81;;;15.53;58.29
56719;BME280;42597;40.636;0.278;2023-11-21T06:42:24;97187.22;;;16.96;60.24
56719;BME280;42597;40.636;0.278;2023-11-21T06:44:50;97199.38;;;17.31;53.25
56719;BME280;42597;40.636;0.278;2023-11-21T06:47:36;97177.16;;;16.16;53.52
56719;BME280;42597;40.636;0.278;2023-11-21T06:50:02;97172.59;;;16.42;53.23
56719;BME280;42597;40.636;0.278;2023-11-21T06:52:27;97170.63;;;15.69;53.16
56719;BME280;42597;40.636;0.278;2023-11-21T06:54:53;97161.41;;;16.68;59.99
56719;BME280;42597;40.636;0.278;2023-11-21T06:57:18;97188.53;;;14.89;52.79
56719;BME280;42597;40.636;0.278;2023-11-21T06:59:44;97155.59;;;16.73;51.26
56719;BME280;42597;40.636;0.278;2023-11-21T07:02:10;97130.31;;;17.12;58.50
56719;BME280;42597;40.636;0.278;2023-11-21T07:04:36;97118.91;;;16.71;53.52
56719;BME280;42597;40.636;0.278;2023-11-21T07:07:03;97109.25;;;17.31;54.85
56719;BME280;42597;40.636;0.278;2023-11-21T07:09:29;97043.31;;;17.39;53.67
56719;BME280;42597;40.636;0.278;2023-11-21T07:11:56;97015.88;;;15.96;59.11
56719;BME280;42597;40.636;0.278;2023-11-21T07:14:21;97055.78;;;16.69;49.87
56719;BME280;42597;40.636;0.278;2023-11-21T07:16:47;97052.75;;;15.72;51.73
56719;BME280;42597;40.636;0.278;2023-11-21T07:19:13;97037.44;;;15.57;54.60
56719;BME280;42597;40.636;0.278;2023-11-21T07:21:39;97067.97;;;14.77;53.25
56719;BME280;42597;40.636;0.278;2023-11-21T07:24:06;97058.72;;;16.10;57.16
56719;BME280;42597;40.636;0.278;2023-11-21T07:26:33;97061.06;;;14.91;54.01
56719;BME280;42597;40.636;0.278;2023-11-21T07:28:59;97107.25;;;15.76;60.35
56719;BME280;42597;40.636;0.278;2023-11-21T07:31:26;97089.56;;;15.52;55.36
56719;BME280;42597;40.636;0.278;2023-11-21T07:33:52;97146.66;;;14.63;54.81
56719;BME280;42597;40.636;0.278;2023-11-21T07:36:19;97171.53;;;14.99;63.33
56719;BME280;42597;40.636;0.278;2023-11-21T07:38:47;97146.00;;;14.40;55.27
56719;BME280;42597;40.636;0.278;2023-11-21T07:41:13;97188.97;;;14.30;53.37
56719;BME280;42597;40.636;0.278;2023-11-21T07:43:43;97188.97;;;14.00;53.47
56719;BME280;42597;40.636;0.278;2023-11-21T07:46:09;97158.63;;;16.61;58.10
56719;BME280;42597;40.636;0.278;2023-11-21T07:48:34;97166.25;;;14.46;54.72
56719;BME280;42597;40.636;0.278;2023-11-21T07:51:03;97180.41;;;15.33;51.71
56719;BME280;42597;40.636;0.278;2023-11-21T07:53:32;97203.66;;;13.23;56.27
56719;BME280;42597;40.636;0.278;2023-11-21T07:56:00;97201.25;;;12.99;57.52
56719;BME280;42597;40.636;0.278;2023-11-21T07:58:27;97191.63;;;14.23;54.71
56719;BME280;42597;40.636;0.278;2023-11-21T08:00:53;97193.69;;;13.54;55.30
56719;BME280;42597;40.636;0.278;2023-11-21T08:03:19;97200.41;;;13.87;55.36
56719;BME280;42597;40.636;0.278;2023-11-21T08:05:45;97182.75;;;13.47;56.53
56719;BME280;42597;40.636;0.278;2023-11-21T08:08:10;97199.09;;;14.03;55.09
56719;BME280;42597;40.636;0.278;2023-11-21T08:10:36;97197.50;;;14.55;61.13
56719;BME280;42597;40.636;0.278;2023-11-21T08:13:02;97201.56;;;14.12;55.13
56719;BME280;42597;40.636;0.278;2023-11-21T08:15:29;97185.25;;;15.54;54.49
56719;BME280;42597;40.636;0.278;2023-11-21T08:17:57;97190.38;;;13.91;55.15
56719;BME280;42597;40.636;0.278;2023-11-21T08:20:24;97159.09;;;12.82;59.85
56719;BME280;42597;40.636;0.278;2023-11-21T08:22:50;97158.53;;;13.38;57.87
56719;BME280;42597;40.636;0.278;2023-11-21T08:25:17;97151.91;;;14.15;57.26
56719;BME280;42597;40.636;0.278;2023-11-21T08:27:45;97121.78;;;14.98;55.47
56719;BME280;42597;40.636;0.278;2023-11-21T08:30:11;97102.44;;;15.11;52.31
56719;BME280;42597;40.636;0.278;2023-11-21T08:32:39;97097.25;;;15.43;55.97
56719;BME280;42597;40.636;0.278;2023-11-21T08:35:05;97093.69;;;15.90;56.76
56719;BME280;42597;40.636;0.278;2023-11-21T08:37:31;97101.28;;;15.63;59.37
56719;BME280;42597;40.636;0.278;2023-11-21T08:39:58;97118.63;;;15.92;54.76
56719;BME280;42597;40.636;0.278;2023-11-21T08:42:27;97111.94;;;15.86;55.16
56719;BME280;42597;40.636;0.278;2023-11-21T08:44:55;97107.13;;;16.38;55.02
56719;BME280;42597;40.636;0.278;2023-11-21T08:47:23;97114.78;;;16.04;58.84
56719;BME280;42597;40.636;0.278;2023-11-21T08:49:50;97133.69;;;16.59;58.35
56719;BME280;42597;40.636;0.278;2023-11-21T08:52:21;97147.97;;;16.27;59.15
56719;BME280;42597;40.636;0.278;2023-11-21T08:54:51;97149.28;;;15.78;57.91
56719;BME280;42597;40.636;0.278;2023-11-21T08:57:24;97152.84;;;15.90;60.45
56719;BME280;42597;40.636;0.278;2023-11-21T08:59:50;97156.25;;;16.45;54.46
56719;BME280;42597;40.636;0.278;2023-11-21T09:02:21;97171.69;;;16.16;58.24
56719;BME280;42597;40.636;0.278;2023-11-21T09:04:48;97136.84;;;16.68;58.68
56719;BME280;42597;40.636;0.278;2023-11-21T09:07:14;97137.97;;;16.57;60.32
56719;BME280;42597;40.636;0.278;2023-11-21T09:09:40;97150.94;;;16.95;57.74
56719;BME280;42597;40.636;0.278;2023-11-21T09:12:06;97113.44;;;16.57;54.23
56719;BME280;42597;40.636;0.278;2023-11-21T09:14:32;97109.22;;;16.95;51.36
56719;BME280;42597;40.636;0.278;2023-11-21T09:16:57;97107.03;;;16.13;54.78
56719;BME280;42597;40.636;0.278;2023-11-21T09:19:23;97083.91;;;17.23;56.90
56719;BME280;42597;40.636;0.278;2023-11-21T09:21:48;97078.44;;;16.76;52.30
56719;BME280;42597;40.636;0.278;2023-11-21T09:24:14;97051.13;;;17.23;57.00
56719;BME280;42597;40.636;0.278;2023-11-21T09:26:40;97050.28;;;16.54;57.15
56719;BME280;42597;40.636;0.278;2023-11-21T09:29:06;97027.31;;;16.70;57.12
56719;BME280;42597;40.636;0.278;2023-11-21T09:31:33;97015.28;;;16.74;53.57
56719;BME280;42597;40.636;0.278;2023-11-21T09:33:59;97040.94;;;16.59;49.91
56719;BME280;42597;40.636;0.278;2023-11-21T09:36:24;97026.13;;;16.60;53.62
56719;BME280;42597;40.636;0.278;2023-11-21T09:38:53;97023.72;;;16.26;49.64
56719;BME280;42597;40.636;0.278;2023-11-21T09:41:37;97044.84;;;17.65;52.07
56719;BME280;42597;40.636;0.278;2023-11-21T09:44:09;97027.75;;;17.15;51.56
56719;BME280;42597;40.636;0.278;2023-11-21T09:46:40;97046.34;;;16.31;54.17
56719;BME280;42597;40.636;0.278;2023-11-21T09:49:08;97043.94;;;16.15;53.70
56719;BME280;42597;40.636;0.278;2023-11-21T09:51:39;97109.09;;;16.52;56.50
56719;BME280;42597;40.636;0.278;2023-11-21T09:54:07;97098.72;;;17.18;57.14
56719;BME280;42597;40.636;0.278;2023-11-21T09:56:36;97130.44;;;16.21;49.16
56719;BME280;42597;40.636;0.278;2023-11-21T09:59:03;97140.69;;;16.53;58.20
56719;BME280;42597;40.636;0.278;2023-11-21T10:01:33;97129.25;;;16.19;51.00
56719;BME280;42597;40.636;0.278;2023-11-21T10:04:01;97116.78;;;15.55;55.77
56719;BME280;42597;40.636;0.278;2023-11-21T10:06:27;97128.22;;;16.59;50.71
56719;BME280;42597;40.636;0.278;2023-11-21T10:08:54;97139.69;;;17.25;55.06
56719;BME280;42597;40.636;0.278;2023-11-21T10:11:24;97142.19;;;16.43;47.69
56719;BME280;42597;40.636;0.278;2023-11-21T10:13:55;97146.06;;;16.39;52.00
56719;BME280;42597;40.636;0.278;2023-11-21T10:16:25;97158.03;;;16.09;52.28
56719;BME280;42597;40.636;0.278;2023-11-21T10:18:52;97187.00;;;15.73;51.45
56719;BME280;42597;40.636;0.278;2023-11-21T10:21:21;97158.38;;;17.06;52.50
56719;BME280;42597;40.636;0.278;2023-11-21T10:23:47;97149.91;;;16.23;51.25
56719;BME280;42597;40.636;0.278;2023-11-21T10:26:13;97200.66;;;16.46;56.76
56719;BME280;42597;40.636;0.278;2023-11-21T10:28:55;97207.03;;;16.02;51.67
56719;BME280;42597;40.636;0.278;2023-11-21T10:31:22;97191.75;;;15.87;50.50
56719;BME280;42597;40.636;0.278;2023-11-21T10:33:50;97198.16;;;16.19;49.07
56719;BME280;42597;40.636;0.278;2023-11-21T10:36:28;97203.09;;;15.92;57.37
56719;BME280;42597;40.636;0.278;2023-11-21T10:38:54;97210.06;;;15.45;51.70
56719;BME280;42597;40.636;0.278;2023-11-21T10:41:20;97203.59;;;16.12;51.00
56719;BME280;42597;40.636;0.278;2023-11-21T10:43:46;97217.44;;;15.86;52.96
56719;BME280;42597;40.636;0.278;2023-11-21T10:46:13;97213.22;;;15.95;51.78
56719;BME280;42597;40.636;0.278;2023-11-21T10:48:41;97198.25;;;15.71;51.99
56719;BME280;42597;40.636;0.278;2023-11-21T10:51:08;97159.66;;;16.24;52.62
56719;BME280;42597;40.636;0.278;2023-11-21T10:53:40;97171.53;;;16.71;57.76
56719;BME280;42597;40.636;0.278;2023-11-21T10:56:08;97119.91;;;16.23;49.87
56719;BME280;42597;40.636;0.278;2023-11-21T10:58:43;97130.47;;;16.28;58.82
56719;BME280;42597;40.636;0.278;2023-11-21T11:01:09;97131.69;;;15.65;52.68
56719;BME280;42597;40.636;0.278;2023-11-21T11:03:40;97086.06;;;16.24;55.76
56719;BME280;42597;40.636;0.278;2023-11-21T11:06:07;97077.19;;;16.52;57.52
56719;BME280;42597;40.636;0.278;2023-11-21T11:08:37;97058.06;;;16.42;58.80
56719;BME280;42597;40.636;0.278;2023-11-21T11:11:07;97029.94;;;16.13;53.49
56719;BME280;42597;40.636;0.278;2023-11-21T11:13:32;97042.56;;;16.92;56.23
56719;BME280;42597;40.636;0.278;2023-11-21T11:15:59;97005.94;;;16.97;52.52
56719;BME280;42597;40.636;0.278;2023-11-21T11:18:29;96996.56;;;16.84;53.11
56719;BME280;42597;40.636;0.278;2023-11-21T11:21:06;96947.84;;;16.75;49.35
56719;BME280;42597;40.636;0.278;2023-11-21T11:26:20;96974.72;;;16.87;51.52
56719;BME280;42597;40.636;0.278;2023-11-21T11:29:00;96938.06;;;16.56;56.49
56719;BME280;42597;40.636;0.278;2023-11-21T11:31:45;96975.47;;;16.34;55.14
56719;BME280;42597;40.636;0.278;2023-11-21T11:37:29;96945.81;;;17.25;56.28
56719;BME280;42597;40.636;0.278;2023-11-21T11:39:56;96973.94;;;16.65;50.50
56719;BME280;42597;40.636;0.278;2023-11-21T11:42:22;96965.72;;;17.15;55.37
56719;BME280;42597;40.636;0.278;2023-11-21T11:44:50;96952.09;;;16.51;54.17
56719;BME280;42597;40.636;0.278;2023-11-21T11:47:20;97005.91;;;16.75;52.13
56719;BME280;42597;40.636;0.278;2023-11-21T11:55:13;96993.44;;;16.96;55.10
56719;BME280;42597;40.636;0.278;2023-11-21T11:57:40;96966.53;;;16.69;53.15
56719;BME280;42597;40.636;0.278;2023-11-21T12:00:19;96957.56;;;16.90;52.72
56719;BME280;42597;40.636;0.278;2023-11-21T12:02:52;96956.78;;;16.65;52.62
56719;BME280;42597;40.636;0.278;2023-11-21T12:05:19;96953.59;;;17.31;54.68
56719;BME280;42597;40.636;0.278;2023-11-21T12:10:22;96976.88;;;17.82;55.38
56719;BME280;42597;40.636;0.278;2023-11-21T12:12:57;96972.41;;;16.86;50.40
56719;BME280;42597;40.636;0.278;2023-11-21T12:15:24;96959.13;;;17.13;51.21
56719;BME280;42597;40.636;0.278;2023-11-21T12:17:51;96995.75;;;17.08;53.78
56719;BME280;42597;40.636;0.278;2023-11-21T12:20:21;96963.66;;;17.62;48.27
56719;BME280;42597;40.636;0.278;2023-11-21T12:22:49;97018.38;;;17.26;50.41
56719;BME280;42597;40.636;0.278;2023-11-21T12:27:52;96989.25;;;18.04;49.42
56719;BME280;42597;40.636;0.278;2023-11-21T12:30:20;96980.06;;;17.51;52.75
56719;BME280;42597;40.636;0.278;2023-11-21T12:32:51;96977.59;;;17.93;51.40
56719;BME280;42597;40.636;0.278;2023-11-21T12:35:18;96973.88;;;17.37;49.71
56719;BME280;42597;40.636;0.278;2023-11-21T12:37:47;96985.56;;;17.41;48.86
56719;BME280;42597;40.636;0.278;2023-11-21T12:40:14;96960.50;;;17.71;51.07
56719;BME280;42597;40.636;0.278;2023-11-21T12:42:48;96944.09;;;17.82;52.31
56719;BME280;42597;40.636;0.278;2023-11-21T12:47:53;96912.63;;;18.18;49.13
56719;BME280;42597;40.636;0.278;2023-11-21T12:50:21;96918.63;;;17.92;53.85
56719;BME280;42597;40.636;0.278;2023-11-21T12:52:50;96953.94;;;17.43;47.61
56719;BME280;42597;40.636;0.278;2023-11-21T12:55:17;96948.53;;;18.20;51.42
56719;BME280;42597;40.636;0.278;2023-11-21T12:57:44;96969.97;;;17.45;46.60
56719;BME280;42597;40.636;0.278;2023-11-21T13:00:12;96977.78;;;17.36;50.01
56719;BME280;42597;40.636;0.278;2023-11-21T13:02:41;97006.16;;;17.70;50.93
56719;BME280;42597;40.636;0.278;2023-11-21T13:05:08;96984.03;;;17.29;49.41
56719;BME280;42597;40.636;0.278;2023-11-21T13:07:44;96960.53;;;17.60;51.39
56719;BME280;42597;40.636;0.278;2023-11-21T13:10:13;96919.69;;;18.12;53.85
56719;BME280;42597;40.636;0.278;2023-11-21T13:12:45;96935.69;;;17.22;52.40
56719;BME280;42597;40.636;0.278;2023-11-21T13:15:17;96947.25;;;17.59;48.43
56719;BME280;42597;40.636;0.278;2023-11-21T13:17:45;96934.00;;;17.57;52.98
56719;BME280;42597;40.636;0.278;2023-11-21T13:20:12;96950.22;;;18.00;53.71